Airfield :
LOGIN :

Register | Disclaimer

   EN    FR    IT 

 










Legend :    VFR   Marginal VFR   IFR   Intensive IFR   Very Intensive IFR
Visi :
Ceiling :
>= 8 km
>= 3000ft
5 to 8 km
1000 to 3000 ft
1500m to 5 km
500 to 1000 ft
800 to 1500m
200 to 500 ft
< 800m
< 200 ft
Symbols :   Thunderstorms  Fog  Heavy snow  Heavy precipitations  Wind > 20 kt
SIGMETs :     Misc.  Thunderstorms  Icing  Turbulence  Mountain Waves  Volcanic Ashes






- Airport Elevation : 390 ft
- IATA code : NQY


EGHQ - Newquay

CURRENT METAR :
  • 121450Z 31007KT 9999 4500W VCFG NSC 21/19 Q1012

EXPIRED METARs :
  • 121420Z 31006KT 280V340 CAVOK 22/19 Q1012
  • 121350Z 31006KT CAVOK 22/19 Q1012
  • 121320Z 32005KT 9999 FEW040 22/19 Q1013
  • 121250Z 35006KT 9999 4500W FEW025 21/19 Q1013
  • 121220Z 32007KT 9999 FEW025 21/19 Q1013
  • 121150Z 33005KT 280V360 9000 FEW025 22/19 Q1013

TAF TAF EGHQ
Valid from the 12 at 15:00 until the 13 at 00:00 UTC


121357Z 1215/1224 33004KT 9999 FEW045
PROB30
TEMPO 1215/1224 VRB15G30KT 2000 +TSRAGR



MET'MAP, your aeronautical weather chart ! - Copyright ORBIFLY December 2007 - Disclaimer

ORBIFLY MET'MAP TEAM :

Programming & Development : Alexandra Zaïnal
Concept & original design : Baudouin d'Aumeries
Assistance for programming : Marc-Olivier Méhu
Technical & hardware support : Manuel Goepfert

Contact : metmap@orbifly.com




SOURCES & CREDITS :

   NOAA